createdAt,value
2019-03-04T00:08:18.583Z,2.23
2019-03-04T01:41:25.429Z,2.07
2019-03-04T01:43:55.396Z,3.13
2019-03-04T01:51:07.455Z,2.70
2019-03-04T02:08:46.856Z,2.70
2019-03-04T03:33:43.403Z,2.87
2019-03-04T04:01:39.206Z,2.07
2019-03-04T04:04:09.406Z,2.10
2019-03-04T04:06:39.261Z,2.53
2019-03-04T04:09:09.284Z,2.60
2019-03-04T04:11:39.182Z,2.23
2019-03-04T04:14:09.296Z,2.60
2019-03-04T04:16:39.403Z,2.90
2019-03-04T04:19:09.311Z,2.20
2019-03-04T04:21:39.170Z,3.10
2019-03-04T04:24:09.284Z,3.40
2019-03-04T04:26:39.152Z,2.77
2019-03-04T04:29:11.257Z,2.30
2019-03-04T04:31:41.712Z,2.10
2019-03-04T04:34:11.831Z,2.73
2019-03-04T04:36:41.687Z,3.00
2019-03-04T04:39:11.665Z,2.77
2019-03-04T04:41:41.598Z,2.27
2019-03-04T04:44:11.556Z,2.10
2019-03-04T04:46:55.790Z,3.13
2019-03-04T04:49:28.619Z,2.57
2019-03-04T04:51:58.643Z,2.87
2019-03-04T04:54:28.529Z,2.43
2019-03-04T04:56:58.426Z,2.50
2019-03-04T04:59:28.380Z,3.27
2019-03-04T05:01:58.392Z,3.67
2019-03-04T05:04:28.362Z,2.50
2019-03-04T05:06:58.378Z,2.80
2019-03-04T05:09:28.286Z,3.13
2019-03-04T05:11:59.800Z,2.63
2019-03-04T05:14:29.721Z,2.63
2019-03-04T05:16:59.604Z,2.43
2019-03-04T05:19:29.489Z,2.90
2019-03-04T05:21:59.349Z,2.60
2019-03-04T05:24:29.766Z,2.77
2019-03-04T05:27:00.019Z,2.60
2019-03-04T05:29:29.920Z,2.27
2019-03-04T05:31:59.884Z,2.77
2019-03-04T05:34:29.777Z,1.97
2019-03-04T05:36:59.667Z,2.00
2019-03-04T05:39:29.571Z,1.93
2019-03-04T05:41:59.521Z,2.00
2019-03-04T05:44:29.406Z,2.30
2019-03-04T05:46:59.258Z,2.70
2019-03-04T05:49:29.159Z,2.30
2019-03-04T05:51:59.095Z,2.13
2019-03-04T05:54:28.982Z,1.80
2019-03-04T05:56:58.895Z,3.73
2019-03-04T05:59:28.771Z,2.70
2019-03-04T06:02:08.607Z,2.73
2019-03-04T06:04:39.626Z,3.97
2019-03-04T06:07:33.840Z,3.53
2019-03-04T06:10:03.995Z,3.87
2019-03-04T06:12:33.903Z,4.13
2019-03-04T06:15:03.892Z,3.70
2019-03-04T06:17:33.777Z,3.30
2019-03-04T06:20:03.754Z,3.20
2019-03-04T06:22:33.623Z,3.60
2019-03-04T06:25:03.545Z,2.40
2019-03-04T06:27:33.684Z,2.53
2019-03-04T06:30:03.803Z,2.93
2019-03-04T06:32:33.690Z,2.87
2019-03-04T06:35:03.679Z,3.10
2019-03-04T06:37:33.622Z,2.63
2019-03-04T06:40:03.769Z,3.03
2019-03-04T06:42:33.626Z,2.87
2019-03-04T06:45:03.621Z,3.73
2019-03-04T06:47:33.490Z,4.87
2019-03-04T06:50:03.466Z,4.13
2019-03-04T06:52:33.338Z,3.50
2019-03-04T06:55:58.268Z,6.33
2019-03-04T06:58:28.170Z,3.70
2019-03-04T07:01:16.282Z,4.77
2019-03-04T07:04:09.478Z,6.30
2019-03-04T07:06:39.600Z,4.67
2019-03-04T07:09:16.442Z,3.97
2019-03-04T07:11:53.573Z,3.23
2019-03-04T07:14:23.615Z,3.10
2019-03-04T07:16:54.236Z,3.30
2019-03-04T07:19:33.112Z,3.23
2019-03-04T07:22:03.008Z,3.00
2019-03-04T07:24:33.735Z,3.23
2019-03-04T07:27:03.684Z,3.53
2019-03-04T07:29:33.612Z,3.67
2019-03-04T07:32:03.568Z,4.77
2019-03-04T07:34:34.046Z,3.40
2019-03-04T07:37:04.049Z,3.83
2019-03-04T07:39:33.927Z,4.00
2019-03-04T07:42:04.159Z,4.30
2019-03-04T07:44:34.048Z,4.83
2019-03-04T07:47:04.014Z,4.87
2019-03-04T07:49:33.987Z,4.67
2019-03-04T07:52:03.893Z,4.93
2019-03-04T07:54:33.800Z,3.07
2019-03-04T07:57:03.670Z,2.27
2019-03-04T07:59:33.645Z,2.27
2019-03-04T08:02:03.663Z,2.20
2019-03-04T08:04:33.557Z,1.93
2019-03-04T08:07:37.856Z,2.00
2019-03-04T08:10:52.545Z,2.37
2019-03-04T08:13:31.037Z,2.20
2019-03-04T08:16:01.259Z,2.13
2019-03-04T08:18:31.151Z,2.70
2019-03-04T08:21:01.109Z,2.73
2019-03-04T08:23:31.074Z,2.93
2019-03-04T08:26:00.992Z,1.93
2019-03-04T08:28:31.035Z,2.40
2019-03-04T08:31:00.931Z,1.73
2019-03-04T08:33:30.824Z,1.90
2019-03-04T08:36:00.696Z,1.83
2019-03-04T08:38:30.589Z,1.07
2019-03-04T08:41:00.486Z,1.43
2019-03-04T08:43:30.512Z,1.30
2019-03-04T08:46:00.397Z,1.10
2019-03-04T08:48:30.298Z,1.10
2019-03-04T08:51:02.222Z,1.00
2019-03-04T08:53:31.910Z,0.83
2019-03-04T08:56:01.809Z,0.90
2019-03-04T08:58:31.711Z,0.80
2019-03-04T09:01:01.699Z,0.93
2019-03-04T09:03:31.614Z,0.83
2019-03-04T09:06:01.463Z,0.80
2019-03-04T09:08:31.628Z,0.80
2019-03-04T09:11:01.581Z,1.00
2019-03-04T09:13:31.468Z,0.97
2019-03-04T09:16:01.348Z,1.00
2019-03-04T09:18:32.073Z,0.90
2019-03-04T09:21:01.993Z,0.87
2019-03-04T09:23:31.893Z,1.10
2019-03-04T09:26:10.738Z,0.90
2019-03-04T09:28:41.222Z,1.07
2019-03-04T09:31:11.110Z,0.80
2019-03-04T09:33:41.022Z,0.80
2019-03-04T09:36:10.924Z,0.80
2019-03-04T09:38:40.845Z,1.00
2019-03-04T09:41:10.996Z,1.10
2019-03-04T09:43:40.952Z,1.03
2019-03-04T09:46:10.880Z,0.83
2019-03-04T09:48:40.752Z,0.80
2019-03-04T09:51:10.936Z,0.97
2019-03-04T09:53:43.053Z,0.90
2019-03-04T09:56:12.607Z,0.80
2019-03-04T09:58:42.529Z,1.03
2019-03-04T10:01:31.546Z,1.10
2019-03-04T10:05:07.344Z,1.37
2019-03-04T10:08:07.436Z,1.00
2019-03-04T10:11:03.144Z,0.90
2019-03-04T10:13:48.037Z,1.17
2019-03-04T10:17:23.574Z,1.07
2019-03-04T10:20:49.561Z,1.03
2019-03-04T10:24:24.780Z,1.03
2019-03-04T10:27:43.749Z,0.90
2019-03-04T10:30:48.680Z,1.40
2019-03-04T10:34:14.231Z,0.97
2019-03-04T10:37:13.153Z,0.90
2019-03-04T10:40:28.378Z,1.00
2019-03-04T10:43:36.100Z,1.10
2019-03-04T10:46:46.823Z,0.97
2019-03-04T10:49:16.716Z,1.00
2019-03-04T10:51:46.621Z,0.90
2019-03-04T10:54:16.651Z,1.57
2019-03-04T10:56:46.596Z,0.93
2019-03-04T10:59:16.648Z,1.60
2019-03-04T11:01:46.608Z,1.00
2019-03-04T11:04:16.586Z,1.27
2019-03-04T11:06:46.792Z,1.67
2019-03-04T11:09:17.247Z,1.30
2019-03-04T11:11:47.310Z,1.20
2019-03-04T11:14:17.198Z,1.53
2019-03-04T11:16:47.073Z,1.20
2019-03-04T11:19:17.046Z,1.20
2019-03-04T11:21:46.990Z,1.23
2019-03-04T11:24:16.952Z,1.10
2019-03-04T11:26:47.301Z,1.40
2019-03-04T11:29:17.165Z,1.23
2019-03-04T11:31:47.143Z,1.30
2019-03-04T11:34:17.158Z,0.90
2019-03-04T11:36:47.062Z,1.30
2019-03-04T11:39:46.892Z,2.07
2019-03-04T11:42:17.013Z,1.10
2019-03-04T11:44:46.908Z,1.63
2019-03-04T11:47:18.763Z,1.40
2019-03-04T11:49:48.644Z,2.30
2019-03-04T11:52:18.525Z,1.83
2019-03-04T11:54:48.916Z,1.30
2019-03-04T11:57:18.853Z,1.50
2019-03-04T11:59:48.748Z,0.90
2019-03-04T12:02:20.786Z,1.73
2019-03-04T12:04:50.928Z,2.87
2019-03-04T12:07:20.999Z,2.13
2019-03-04T12:09:50.868Z,3.83
2019-03-04T12:12:21.029Z,2.00
2019-03-04T12:14:50.903Z,1.73
2019-03-04T12:17:20.802Z,1.73
2019-03-04T12:19:50.697Z,1.53
2019-03-04T12:22:20.592Z,1.53
2019-03-04T12:24:50.464Z,1.80
2019-03-04T12:27:20.437Z,1.67
2019-03-04T12:29:50.334Z,1.13
2019-03-04T12:32:33.872Z,2.03
2019-03-04T12:35:04.702Z,2.03
2019-03-04T12:37:34.588Z,2.10
2019-03-04T12:40:06.562Z,1.40
2019-03-04T12:42:36.490Z,1.77
2019-03-04T12:45:08.355Z,1.70
2019-03-04T12:47:38.292Z,2.73
2019-03-04T12:50:12.727Z,1.20
2019-03-04T12:52:42.687Z,1.10
2019-03-04T12:55:12.791Z,1.47
2019-03-04T12:57:43.075Z,1.60
2019-03-04T13:00:17.680Z,2.27
2019-03-04T13:02:57.207Z,1.80
2019-03-04T13:05:19.545Z,1.70
2019-03-04T13:07:49.696Z,2.60
2019-03-04T13:10:19.757Z,1.70
2019-03-04T13:12:49.711Z,3.10
2019-03-04T13:15:22.331Z,1.60
2019-03-04T13:17:52.318Z,2.10
2019-03-04T13:20:22.341Z,2.77
2019-03-04T13:22:52.307Z,1.03
2019-03-04T13:25:22.259Z,2.83
2019-03-04T13:27:52.359Z,1.73
2019-03-04T13:30:23.216Z,2.07
2019-03-04T13:32:53.432Z,1.57
2019-03-04T13:35:24.941Z,2.10
2019-03-04T13:37:55.143Z,1.80
2019-03-04T13:40:26.753Z,1.60
2019-03-04T13:42:56.734Z,1.37
2019-03-04T13:45:26.843Z,1.53
2019-03-04T13:47:57.065Z,1.80
2019-03-04T13:50:27.385Z,1.73
2019-03-04T13:52:57.504Z,1.70
2019-03-04T13:55:27.674Z,1.53
2019-03-04T13:57:57.649Z,2.17
2019-03-04T14:00:29.780Z,2.10
2019-03-04T14:02:59.673Z,1.63
2019-03-04T14:05:30.079Z,1.60
2019-03-04T14:07:59.977Z,1.80
2019-03-04T14:10:33.021Z,1.00
2019-03-04T14:13:03.462Z,1.50
2019-03-04T14:15:36.095Z,1.17
2019-03-04T14:18:06.344Z,1.10
2019-03-04T14:20:36.347Z,1.50
2019-03-04T14:23:06.380Z,1.57
2019-03-04T14:25:36.362Z,1.17
2019-03-04T14:28:06.316Z,1.80
2019-03-04T14:30:36.525Z,1.77
2019-03-04T14:33:06.564Z,1.37
2019-03-04T14:35:36.516Z,1.70
2019-03-04T14:38:06.416Z,1.30
2019-03-04T14:40:36.378Z,2.03
2019-03-04T14:43:06.597Z,1.47
2019-03-04T14:45:36.548Z,1.13
2019-03-04T14:48:06.526Z,1.77
2019-03-04T14:50:36.482Z,1.57
2019-03-04T14:53:06.545Z,1.20
2019-03-04T14:55:36.551Z,1.63
2019-03-04T14:58:06.462Z,1.67
2019-03-04T15:00:38.248Z,1.57
2019-03-04T15:03:08.277Z,1.40
2019-03-04T15:05:38.224Z,2.17
2019-03-04T15:08:08.309Z,0.80
2019-03-04T15:10:38.247Z,1.13
2019-03-04T15:13:09.848Z,1.40
2019-03-04T15:15:40.134Z,1.50
2019-03-04T15:18:10.111Z,1.67
2019-03-04T15:20:40.712Z,1.60
2019-03-04T15:23:10.667Z,1.07
2019-03-04T15:25:40.672Z,2.23
2019-03-04T15:28:16.214Z,1.40
2019-03-04T15:30:47.856Z,1.00
2019-03-04T15:33:18.896Z,1.53
2019-03-04T15:35:49.125Z,1.10
2019-03-04T15:38:19.345Z,1.60
2019-03-04T15:40:49.230Z,1.40
2019-03-04T15:43:19.454Z,2.20
2019-03-04T15:45:50.692Z,2.23
2019-03-04T15:48:22.352Z,1.00
2019-03-04T15:50:52.432Z,1.93
2019-03-04T15:53:22.797Z,1.33
2019-03-04T15:55:52.796Z,1.80
2019-03-04T15:58:22.738Z,1.63
2019-03-04T16:00:53.392Z,1.10
2019-03-04T16:03:23.332Z,2.67
2019-03-04T16:05:53.515Z,1.27
2019-03-04T16:08:23.484Z,1.20
2019-03-04T16:10:53.499Z,1.40
2019-03-04T16:13:23.637Z,0.80
2019-03-04T16:15:53.650Z,1.00
2019-03-04T16:18:23.634Z,1.00
2019-03-04T16:20:53.606Z,0.73
2019-03-04T16:23:23.515Z,0.80
2019-03-04T16:25:53.460Z,0.67
2019-03-04T16:28:26.791Z,0.80
2019-03-04T16:30:56.872Z,0.60
2019-03-04T16:33:27.155Z,0.80
2019-03-04T16:35:57.199Z,0.77
2019-03-04T16:38:27.098Z,0.93
2019-03-04T16:40:57.064Z,0.70
2019-03-04T16:43:27.000Z,1.40
2019-03-04T16:45:56.937Z,0.80
2019-03-04T16:48:26.834Z,1.00
2019-03-04T16:50:56.803Z,2.30
2019-03-04T16:53:27.296Z,0.90
2019-03-04T16:55:57.276Z,0.80
2019-03-04T16:58:27.258Z,1.07
2019-03-04T17:00:57.393Z,0.90
2019-03-04T17:03:27.377Z,1.00
2019-03-04T17:05:57.394Z,1.23
2019-03-04T17:08:27.544Z,1.60
2019-03-04T17:10:57.522Z,1.40
2019-03-04T17:13:27.540Z,1.17
2019-03-04T17:15:57.749Z,0.90
2019-03-04T17:18:27.671Z,1.03
2019-03-04T17:20:57.549Z,1.00
2019-03-04T17:23:27.487Z,1.60
2019-03-04T17:25:57.779Z,1.20
2019-03-04T17:28:27.683Z,1.10
2019-03-04T17:30:57.555Z,1.60
2019-03-04T17:33:27.555Z,0.80
2019-03-04T17:35:57.393Z,0.97
2019-03-04T17:38:27.286Z,0.90
2019-03-04T17:40:57.293Z,0.90
2019-03-04T17:43:27.201Z,1.00
2019-03-04T17:45:57.151Z,0.80
2019-03-04T17:48:27.127Z,1.47
2019-03-04T17:50:57.272Z,0.60
2019-03-04T17:53:27.161Z,0.93
2019-03-04T17:55:57.069Z,0.80
2019-03-04T17:58:27.050Z,0.73
2019-03-04T18:00:57.094Z,0.80
2019-03-04T18:03:26.989Z,0.90
2019-03-04T18:05:56.950Z,1.10
2019-03-04T18:08:26.858Z,0.80
2019-03-04T18:10:56.727Z,0.80
2019-03-04T18:13:26.702Z,1.00
2019-03-04T18:15:56.654Z,0.77
2019-03-04T18:18:26.556Z,0.83
2019-03-04T18:20:56.669Z,1.20
2019-03-04T18:23:26.569Z,1.13
2019-03-04T18:26:02.651Z,1.03
2019-03-04T18:29:11.660Z,1.40
2019-03-04T18:32:33.914Z,1.20
2019-03-04T18:36:17.906Z,1.80
2019-03-04T18:39:43.762Z,1.60
2019-03-04T18:42:41.640Z,1.40
2019-03-04T18:45:47.321Z,1.40
2019-03-04T18:48:52.745Z,1.23
2019-03-04T18:51:22.723Z,2.00
2019-03-04T18:53:54.907Z,1.57
2019-03-04T18:56:24.949Z,1.80
2019-03-04T18:58:54.896Z,2.13
2019-03-04T19:01:24.904Z,1.80
2019-03-04T19:03:54.795Z,2.10
2019-03-04T19:06:24.700Z,1.80
2019-03-04T19:08:54.677Z,2.47
2019-03-04T19:11:24.589Z,1.30
2019-03-04T19:13:54.474Z,1.20
2019-03-04T19:16:24.696Z,1.33
2019-03-04T19:18:54.571Z,1.27
2019-03-04T19:21:24.528Z,1.27
2019-03-04T19:23:54.542Z,1.83
2019-03-04T19:26:24.658Z,3.67
2019-03-04T19:28:54.515Z,2.20
2019-03-04T19:31:24.425Z,2.50
2019-03-04T19:33:54.291Z,2.53
2019-03-04T19:36:24.264Z,3.70
2019-03-04T19:38:54.145Z,2.00
2019-03-04T19:41:24.121Z,1.97
2019-03-04T19:43:54.007Z,1.40
2019-03-04T19:46:23.977Z,1.40
2019-03-04T19:48:54.016Z,1.67
2019-03-04T19:51:24.069Z,1.50
2019-03-04T19:53:53.932Z,1.37
2019-03-04T19:56:26.062Z,1.70
2019-03-04T19:58:56.272Z,1.20
2019-03-04T20:01:26.526Z,1.20
2019-03-04T20:03:56.489Z,1.27
2019-03-04T20:06:26.424Z,1.47
2019-03-04T20:08:56.367Z,1.17
2019-03-04T20:11:26.276Z,1.43
2019-03-04T20:13:56.147Z,1.40
2019-03-04T20:16:26.192Z,1.10
2019-03-04T20:18:56.080Z,1.17
2019-03-04T20:21:26.100Z,1.10
2019-03-04T20:23:56.117Z,1.23
2019-03-04T20:26:26.173Z,1.03
2019-03-04T20:28:56.055Z,1.00
2019-03-04T20:31:26.081Z,1.30
2019-03-04T20:33:55.957Z,1.00
2019-03-04T20:36:26.084Z,1.10
2019-03-04T20:38:55.959Z,0.80
2019-03-04T20:41:25.932Z,1.13
2019-03-04T20:43:55.962Z,1.30
2019-03-04T20:46:25.864Z,1.30
2019-03-04T20:48:55.778Z,1.70
2019-03-04T20:51:25.744Z,1.17
2019-03-04T20:53:55.623Z,1.10
2019-03-04T20:56:25.553Z,1.50
2019-03-04T20:58:55.441Z,1.00
2019-03-04T21:01:26.218Z,1.60
2019-03-04T21:03:56.161Z,1.80
2019-03-04T21:06:26.175Z,2.00
2019-03-04T21:08:56.151Z,1.33
2019-03-04T21:11:26.210Z,1.87
2019-03-04T21:13:56.089Z,3.23
2019-03-04T21:16:26.103Z,6.00
2019-03-04T21:18:55.981Z,3.43
2019-03-04T21:21:26.018Z,2.70
2019-03-04T21:23:55.894Z,2.03
2019-03-04T21:26:39.554Z,2.93
2019-03-04T21:30:09.271Z,4.70
2019-03-04T21:33:13.183Z,2.33
2019-03-04T21:36:32.104Z,2.23
2019-03-04T21:39:02.238Z,1.83
2019-03-04T21:42:34.013Z,1.53
2019-03-04T21:45:36.524Z,1.20
2019-03-04T21:48:13.591Z,2.20
2019-03-04T21:51:46.736Z,2.40
2019-03-04T21:54:16.786Z,1.60
2019-03-04T21:57:28.479Z,1.67
2019-03-04T21:59:58.684Z,2.70
2019-03-04T22:02:46.210Z,1.87
2019-03-04T22:05:16.643Z,1.77
2019-03-04T22:07:46.685Z,2.23
2019-03-04T22:10:16.904Z,1.23
2019-03-04T22:12:47.267Z,4.37
2019-03-04T22:15:18.616Z,1.57
2019-03-04T22:17:48.602Z,3.30
2019-03-04T22:20:18.632Z,1.73
2019-03-04T22:22:48.519Z,2.07
2019-03-04T22:25:18.469Z,1.43
2019-03-04T22:27:48.416Z,1.47
2019-03-04T22:30:18.608Z,1.90
2019-03-04T22:32:48.590Z,1.40
2019-03-04T22:35:18.634Z,1.60
2019-03-04T22:37:48.758Z,0.97
2019-03-04T22:40:19.884Z,2.30
2019-03-04T22:42:49.879Z,1.10
2019-03-04T22:45:20.105Z,1.40
2019-03-04T22:47:50.492Z,1.60
2019-03-04T22:50:20.870Z,1.73
2019-03-04T22:52:50.782Z,1.30
2019-03-04T22:55:25.517Z,1.73
2019-03-04T22:57:55.515Z,2.60
2019-03-04T23:01:36.014Z,1.20
2019-03-04T23:04:31.075Z,1.20
2019-03-04T23:07:08.202Z,1.60
2019-03-04T23:09:54.660Z,1.30
2019-03-04T23:12:38.246Z,1.30
2019-03-04T23:15:11.888Z,1.60
2019-03-04T23:17:41.798Z,1.23
2019-03-04T23:20:11.830Z,1.60
2019-03-04T23:22:41.721Z,1.50
2019-03-04T23:25:12.221Z,1.50
2019-03-04T23:27:42.108Z,1.53
2019-03-04T23:30:14.383Z,1.17
2019-03-04T23:32:44.409Z,1.40
2019-03-04T23:35:14.563Z,1.40
2019-03-04T23:37:44.530Z,1.43
2019-03-04T23:40:14.671Z,1.40
2019-03-04T23:42:44.556Z,3.03
2019-03-04T23:45:14.589Z,1.20
2019-03-04T23:47:44.563Z,0.97
2019-03-04T23:50:20.312Z,1.10
2019-03-04T23:52:50.265Z,1.70
2019-03-04T23:55:20.280Z,1.10
2019-03-04T23:57:50.284Z,1.40
